createdAt,value
2022-12-14T00:00:25.054Z,62.70
2022-12-14T00:10:25.087Z,34.00
2022-12-14T00:20:25.005Z,60.10
2022-12-14T00:30:25.021Z,38.70
2022-12-14T00:40:25.110Z,61.00
2022-12-14T00:50:25.076Z,59.40
2022-12-14T01:00:25.106Z,56.80
2022-12-14T01:10:25.181Z,42.90
2022-12-14T01:20:25.071Z,33.70
2022-12-14T01:30:25.074Z,62.40
2022-12-14T01:40:25.117Z,20.90
2022-12-14T01:50:25.079Z,13.60
2022-12-14T02:00:25.058Z,35.90
2022-12-14T02:10:25.155Z,13.40
2022-12-14T02:20:25.032Z,14.90
2022-12-14T02:30:25.073Z,53.20
2022-12-14T02:40:25.044Z,31.20
2022-12-14T02:50:25.093Z,41.00
2022-12-14T03:00:25.066Z,46.10
2022-12-14T03:10:25.084Z,29.20
2022-12-14T03:20:25.087Z,42.80
2022-12-14T03:30:44.333Z,43.70
2022-12-14T03:40:25.086Z,55.00
2022-12-14T03:50:25.078Z,59.20
2022-12-14T04:00:25.059Z,49.30
2022-12-14T04:10:25.126Z,32.30
2022-12-14T04:20:25.094Z,39.40
2022-12-14T04:30:25.102Z,56.10
2022-12-14T04:40:25.105Z,87.80
2022-12-14T04:50:25.083Z,64.90
2022-12-14T05:00:25.140Z,39.00
2022-12-14T05:10:25.164Z,71.30
2022-12-14T05:20:25.094Z,62.00
2022-12-14T05:30:25.188Z,68.50
2022-12-14T05:40:25.092Z,68.00
2022-12-14T05:50:25.097Z,74.90
2022-12-14T06:00:25.127Z,55.20
2022-12-14T06:10:25.145Z,63.50
2022-12-14T06:20:25.106Z,63.50
2022-12-14T06:30:25.111Z,64.70
2022-12-14T06:40:25.150Z,62.90
2022-12-14T06:50:25.189Z,75.30
2022-12-14T07:00:25.140Z,60.10
2022-12-14T07:10:25.146Z,67.80
2022-12-14T07:20:25.167Z,58.30
2022-12-14T07:30:25.136Z,59.60
2022-12-14T07:40:25.145Z,72.80
2022-12-14T07:50:25.154Z,60.10
2022-12-14T08:00:25.123Z,65.00
2022-12-14T08:10:25.138Z,74.90
2022-12-14T08:20:25.249Z,61.30
2022-12-14T08:30:25.183Z,64.90
2022-12-14T08:40:25.227Z,64.50
2022-12-14T08:50:25.291Z,84.10
2022-12-14T09:00:25.173Z,86.70
2022-12-14T09:10:25.177Z,103.20
2022-12-14T09:30:26.763Z,110.00
2022-12-14T09:40:25.178Z,93.80
2022-12-14T09:50:25.181Z,102.60
2022-12-14T10:00:25.186Z,77.20
2022-12-14T10:10:25.167Z,95.00
2022-12-14T10:20:25.193Z,87.40
2022-12-14T10:30:25.166Z,73.00
2022-12-14T10:40:33.221Z,92.10
2022-12-14T10:50:25.257Z,94.70
2022-12-14T11:00:25.287Z,104.40
2022-12-14T11:10:25.261Z,101.90
2022-12-14T11:20:25.192Z,104.90
2022-12-14T11:30:25.235Z,88.70
2022-12-14T11:40:25.199Z,81.20
2022-12-14T11:50:25.245Z,84.60
2022-12-14T12:00:25.228Z,84.70
2022-12-14T12:10:25.203Z,77.00
2022-12-14T12:20:25.233Z,93.60
2022-12-14T12:30:25.374Z,79.80
2022-12-14T12:40:25.218Z,91.40
2022-12-14T12:50:25.286Z,63.60
2022-12-14T13:00:25.246Z,47.70
2022-12-14T13:10:25.215Z,68.30
2022-12-14T13:20:25.257Z,50.20
2022-12-14T13:30:25.225Z,45.60
2022-12-14T13:40:25.232Z,63.20
2022-12-14T13:50:37.055Z,74.00
2022-12-14T14:00:25.245Z,53.90
2022-12-14T14:10:25.237Z,63.50
2022-12-14T14:20:25.267Z,51.00
2022-12-14T14:30:25.254Z,49.80
2022-12-14T14:40:38.311Z,43.10
2022-12-14T14:50:25.283Z,50.50
2022-12-14T15:00:25.286Z,43.60
2022-12-14T15:10:25.303Z,42.00
2022-12-14T15:20:25.288Z,34.60
2022-12-14T15:30:25.290Z,45.20
2022-12-14T15:40:25.309Z,44.50
2022-12-14T15:50:25.279Z,39.20
2022-12-14T16:00:25.278Z,39.40
2022-12-14T16:10:25.274Z,45.50
2022-12-14T16:20:25.318Z,47.30
2022-12-14T16:30:25.277Z,52.30
2022-12-14T16:40:25.314Z,45.10
2022-12-14T16:50:54.988Z,53.00
2022-12-14T17:00:25.283Z,48.00
2022-12-14T17:10:25.309Z,46.30
2022-12-14T17:20:25.372Z,48.60
2022-12-14T17:30:25.347Z,52.00
2022-12-14T17:40:25.374Z,58.70
2022-12-14T17:50:25.393Z,54.10
2022-12-14T18:00:25.337Z,48.60
2022-12-14T18:10:25.306Z,54.10
2022-12-14T18:20:25.340Z,56.40
2022-12-14T18:30:25.384Z,38.80
2022-12-14T18:40:25.408Z,60.10
2022-12-14T18:50:25.361Z,58.10
2022-12-14T19:00:25.328Z,40.70
2022-12-14T19:10:25.423Z,62.50
2022-12-14T19:20:25.350Z,69.40
2022-12-14T19:30:25.648Z,26.50
2022-12-14T19:40:25.352Z,58.70
2022-12-14T19:50:25.460Z,50.00
2022-12-14T20:00:25.373Z,72.90
2022-12-14T20:10:25.356Z,70.10
2022-12-14T20:20:25.373Z,66.40
2022-12-14T20:30:25.374Z,61.90
2022-12-14T20:40:25.402Z,72.60
2022-12-14T20:50:25.466Z,58.00
2022-12-14T21:00:25.383Z,83.00
2022-12-14T21:10:25.406Z,83.40
2022-12-14T21:20:25.384Z,71.60
2022-12-14T21:30:25.369Z,84.00
2022-12-14T21:40:25.395Z,53.20
2022-12-14T21:50:25.410Z,60.40
2022-12-14T22:00:25.385Z,54.70
2022-12-14T22:10:25.486Z,76.40
2022-12-14T22:20:25.387Z,50.60
2022-12-14T22:30:31.274Z,89.80
2022-12-14T22:40:25.425Z,66.80
2022-12-14T22:50:25.411Z,70.80
2022-12-14T23:00:25.399Z,75.00
2022-12-14T23:10:25.395Z,74.10
2022-12-14T23:20:25.425Z,63.90
2022-12-14T23:30:25.414Z,85.30
2022-12-14T23:40:25.435Z,73.20
2022-12-14T23:50:25.405Z,68.70
